CAGO2: Washita River At Carnegie, OK

Data processed at Sun Sep 23 2018 22:02


All information presented herein is the property of the government of the United States of America and may be revised or deleted at any time without prior notice.
Dissemination of this information without the expressed written consent of the Public Affairs Office, Tulsa District U.S. Army Corps of Engineers is strictly prohibited.
These data are gathered electronically and, as presented, have not undergone any form of quality control. These data are not guaranteed to be valid or correct.
Go to home page.
Go to station list.
Go to home page.

Upstream stations:

Downstream station:
Previous Day
Next Day
Current Day
    
SHEF ID:       CAGO2     Washita River at Carnegie, OK
STATION TYPE:  

               PRECIP     STAGE  RIV-FLOW  BAT-LOAD
                   in        ft       cfs      volt
              Ccp-Rev   Ccp-Rev   Ccp-Rev   Ccp-Rev
(US/Central)
09/23 00:00      0.00     13.18      2811     12.65
09/23 01:00      0.00     13.20      2820     12.65
09/23 02:00      0.00     13.16      2803     12.65
09/23 03:00      0.00     13.14      2794     12.65
09/23 04:00      0.00     13.02      2743     12.65
09/23 05:00      0.00     12.79      2646     12.65
09/23 06:00      0.00     12.60      2562     12.65
09/23 07:00      0.00     12.38      2466     12.65
09/23 08:00      0.00     12.12      2355     12.65
09/23 09:00      0.00     11.84      2244     12.65
09/23 10:00      0.00     11.51      2128     12.73
09/23 11:00      0.00     11.17      2013     13.05
09/23 12:00      0.00     10.80      1889     13.13
09/23 13:00      0.00     10.49      1785     13.29
09/23 14:00      0.00     10.13      1665     13.29
09/23 15:00      0.00      9.82      1563     13.44
09/23 16:00      0.00      9.51      1464     13.37
09/23 17:00      0.00      9.22      1371     13.21
09/23 18:00      0.00      8.94      1282     13.13
09/23 19:00      0.00      8.69      1205     13.05
09/23 20:00      0.00      8.42      1124     12.81
09/23 21:00      0.00      8.23      1068     12.73
09/23 22:00      ----      ----      ----      ----
09/23 23:00      ----      ----      ----      ----